Zagreb Pleso, Hrvatska

03:20 PM CET on Siječanj 27, 2015 (GMT +0100)
Zagreb, Dugave | Change Station
CLOSE
Current Station
Osobna meteo-postaja
Location: Zagreb, GRAD ZAGREB
Visina: 377 ft
Nearby Weather Stations

Elev 377 ft 45.76 °N, 15.99 °E | Updated 4 seconds ago

Clear
Vedro
38.4 °F
Feels Like 38 °F
S
0.0
Vjetar Varijabla smjera vjetra Vjetar from ISI
Gusts 0.0 mph

Danas
High -- | Low -- °F
--% Chance of Precip.
Jučer
High -- | Low -- °F
Precip. -- u
7:23 AM 4:53 PM
Prva četvrtina, 54% visible
Pritisak 29.98 u
Vidljivost -9999.0 milja
Oblaci
Subjektivni osjećaj 38 °F
Točka rose 30 °F
Vlažnost 73%
Kiša 0.00 u
Visina snijega Not available.
UV Not available.
Pollen Not available.
Kvalitet zraka Not available.
Flu Activity Not available.
METAR LDZA 271400Z VRB02KT CAVOK 02/M02 Q1015 NOSIG

More Conditions Fewer Conditions

Pritisak 29.98 u
Vidljivost -9999.0 milja
Oblaci
Subjektivni osjećaj 38 °F
Točka rose 30 °F
Vlažnost 73%
Kiša 0.00 u
Visina snijega Not available.
UV Not available.
Pollen Not available.
Kvalitet zraka Not available.
Flu Activity Not available.
METAR LDZA 271400Z VRB02KT CAVOK 02/M02 Q1015 NOSIG

More Conditions Fewer Conditions

10-Day Weather Forecast

Almanac

Astronomija

Jan. 27, 2015 Izlazak Zalazak
Trenutno vrijeme
Civilni sumrak
Nautički sumrak
Astronomski sumrak
Moon
Duljina trajanja vidljive svjetlosti
Duljina dana
Tomorrow will be .
, % of the Moon is Illuminated

Današnji ekstremi

Country Highs Country Lows

Community

WunderPhotos

Upload Photos

1,790,648 photos uploaded!

WunderBlogs® & News

Nearby

Kvalitet zraka

  Kvalitet zraka AQ Index Zagadjenje
Not available.

Visina snijega

Station Depth Visina

Earthquake Activity

Grad Distance Mag. Time & Date
Minimum magnitude displayed is 2.5.

Coastal Water Temperatures

Mjesto Temperatura

Nearby Weather Stations